Time;durP1;ratioP1;P1;durP2;ratioP2;P2;SDS_P1;SDS_P2;PMS_P1;PMS_P2;Temp;Humidity;BMP_temperature;BMP_pressure;BME280_temperature;BME280_humidity;BME280_pressure;Samples;Min_cycle;Max_cycle;Signal;HPM_P1;HPM_P2
2022/02/17 00:00:39;;;;;;;36.00;19.75;;;;;;;4.50;66.98;99723.25;1755680;81;21570;-59
2022/02/17 00:03:06;;;;;;;33.70;21.23;;;;;;;4.41;67.09;99721.27;1757399;81;21036;-58
2022/02/17 00:05:33;;;;;;;32.93;19.17;;;;;;;4.38;67.16;99717.08;1754774;80;21048;-59
2022/02/17 00:08:00;;;;;;;28.95;19.40;;;;;;;4.30;67.05;99710.70;1746194;79;22204;-59
2022/02/17 00:10:27;;;;;;;27.00;18.20;;;;;;;4.21;67.07;99705.62;1744630;81;21982;-58
2022/02/17 00:12:57;;;;;;;28.60;18.42;;;;;;;4.09;67.00;99701.56;1748850;81;21035;-58
2022/02/17 00:15:27;;;;;;;33.73;18.70;;;;;;;4.02;67.15;99689.88;1679996;83;21729;-58
2022/02/17 00:17:55;;;;;;;26.33;17.48;;;;;;;4.02;67.07;99682.55;1749635;81;21130;-59
2022/02/17 00:20:23;;;;;;;26.55;17.92;;;;;;;4.01;67.24;99673.05;1746500;81;21154;-59
2022/02/17 00:22:51;;;;;;;28.00;20.12;;;;;;;4.03;67.65;99672.00;1749637;81;21122;-59
2022/02/17 00:25:17;;;;;;;39.58;20.77;;;;;;;4.05;68.13;99685.78;1747879;81;21112;-58
2022/02/17 00:27:45;;;;;;;33.78;20.35;;;;;;;4.11;68.41;99698.03;1752005;81;21504;-58
2022/02/17 00:30:12;;;;;;;34.67;19.40;;;;;;;4.15;68.58;99691.20;1751259;81;21130;-58
2022/02/17 00:32:39;;;;;;;29.35;18.85;;;;;;;4.19;68.61;99685.36;1730049;81;21563;-58
2022/02/17 00:35:07;;;;;;;31.50;21.48;;;;;;;4.21;68.64;99673.89;1763411;80;22220;-58
2022/02/17 00:37:34;;;;;;;33.02;20.90;;;;;;;4.25;68.68;99678.43;1751368;81;21083;-57
2022/02/17 00:40:04;;;;;;;28.35;19.35;;;;;;;4.23;68.65;99672.02;1748686;81;21055;-57
2022/02/17 00:42:30;;;;;;;32.80;19.20;;;;;;;4.28;68.57;99671.25;1724016;81;21097;-58
2022/02/17 00:44:57;;;;;;;32.48;17.87;;;;;;;4.39;68.48;99663.23;1746111;80;21105;-57
2022/02/17 00:47:23;;;;;;;33.63;19.73;;;;;;;4.52;68.49;99648.91;1721174;81;21090;-57
2022/02/17 00:49:50;;;;;;;28.73;18.75;;;;;;;4.58;68.27;99641.51;1747904;79;21099;-57
2022/02/17 00:52:17;;;;;;;32.63;19.70;;;;;;;4.58;68.10;99635.00;1746295;81;21101;-58
2022/02/17 00:54:43;;;;;;;34.18;21.00;;;;;;;4.60;68.35;99630.52;1716840;81;21087;-57
2022/02/17 00:57:10;;;;;;;33.67;20.90;;;;;;;4.58;68.25;99618.06;1745429;81;21549;-57
2022/02/17 00:59:36;;;;;;;33.40;20.60;;;;;;;4.54;68.29;99611.41;1724387;81;21931;-57
2022/02/17 01:02:04;;;;;;;37.95;21.20;;;;;;;4.52;68.33;99605.91;1707219;83;21701;-57
2022/02/17 01:04:31;;;;;;;34.92;22.32;;;;;;;4.50;68.44;99603.89;1752281;81;21041;-57
2022/02/17 01:06:58;;;;;;;34.35;20.40;;;;;;;4.45;68.45;99597.23;1744103;79;21098;-57
2022/02/17 01:09:25;;;;;;;36.98;21.02;;;;;;;4.40;68.57;99594.07;1752620;81;21058;-58
2022/02/17 01:11:51;;;;;;;29.75;19.37;;;;;;;4.42;68.78;99587.45;1750558;81;21120;-58
2022/02/17 01:14:18;;;;;;;29.85;20.10;;;;;;;4.52;68.93;99582.47;1743081;81;21094;-58
2022/02/17 01:16:45;;;;;;;33.53;19.98;;;;;;;4.64;69.12;99570.75;1755032;81;21039;-57
2022/02/17 01:19:13;;;;;;;32.55;19.95;;;;;;;4.74;68.98;99560.53;1746665;81;21079;-57
2022/02/17 01:21:42;;;;;;;30.40;19.48;;;;;;;4.80;69.03;99550.14;1759027;81;21004;-58
2022/02/17 01:24:09;;;;;;;34.25;21.35;;;;;;;4.84;68.81;99545.06;1761896;81;21108;-58
2022/02/17 01:26:35;;;;;;;34.35;20.77;;;;;;;4.80;68.69;99542.33;1759672;81;21038;-57
2022/02/17 01:29:03;;;;;;;34.00;19.75;;;;;;;4.78;68.80;99540.30;1750135;81;21493;-57
2022/02/17 01:31:32;;;;;;;35.23;20.05;;;;;;;4.76;68.91;99535.67;1756576;81;21020;-57
2022/02/17 01:34:09;;;;;;;30.10;18.90;;;;;;;4.75;69.17;99534.00;1749641;81;21051;-58
2022/02/17 01:36:37;;;;;;;34.33;20.15;;;;;;;4.80;69.23;99528.81;1750054;81;21153;-57
2022/02/17 01:39:04;;;;;;;29.20;18.62;;;;;;;4.91;69.02;99523.31;1748861;81;21078;-57
2022/02/17 01:41:31;;;;;;;27.82;17.70;;;;;;;5.02;69.02;99515.58;1746494;80;21568;-57
2022/02/17 01:44:02;;;;;;;31.95;20.48;;;;;;;5.10;68.91;99506.74;1747440;81;21119;-57
2022/02/17 01:46:37;;;;;;;34.40;19.92;;;;;;;5.15;68.82;99498.59;1750738;81;20994;-57
2022/02/17 01:49:05;;;;;;;30.27;20.20;;;;;;;5.11;68.53;99489.31;1734277;80;21144;-57
2022/02/17 01:51:32;;;;;;;29.00;18.55;;;;;;;5.07;68.62;99493.09;1754574;80;21083;-56
2022/02/17 01:54:00;;;;;;;29.12;20.12;;;;;;;5.01;68.68;99491.29;1770054;80;21172;-56
2022/02/17 01:56:28;;;;;;;27.77;20.75;;;;;;;4.99;68.83;99493.62;1715640;82;21019;-57
2022/02/17 01:58:55;;;;;;;29.10;19.25;;;;;;;4.96;69.11;99492.54;1763247;80;20999;-57
2022/02/17 02:01:23;;;;;;;31.15;19.62;;;;;;;4.95;69.05;99490.41;1720575;80;21123;-58
2022/02/17 02:03:50;;;;;;;30.40;18.70;;;;;;;4.98;68.94;99482.37;1766897;80;21045;-58
2022/02/17 02:06:17;;;;;;;30.50;19.05;;;;;;;5.08;68.79;99479.95;1766289;80;21045;-57
2022/02/17 02:08:55;;;;;;;28.75;17.65;;;;;;;5.15;68.68;99475.13;1730304;80;21180;-57
2022/02/17 02:11:22;;;;;;;31.82;19.35;;;;;;;5.19;68.73;99470.89;1759868;80;21056;-57
2022/02/17 02:13:50;;;;;;;30.23;18.48;;;;;;;5.22;68.87;99468.52;1735098;80;21911;-57
2022/02/17 02:16:17;;;;;;;30.43;18.87;;;;;;;5.24;68.87;99463.19;1738056;80;21686;-57
2022/02/17 02:18:43;;;;;;;28.75;18.35;;;;;;;5.21;68.90;99456.41;1761170;80;21587;-58
2022/02/17 02:21:11;;;;;;;26.57;18.07;;;;;;;5.21;69.02;99445.98;1765147;80;21012;-58
2022/02/17 02:23:38;;;;;;;24.55;16.65;;;;;;;5.23;69.15;99443.26;1757879;80;21031;-58
2022/02/17 02:26:05;;;;;;;29.85;19.80;;;;;;;5.23;69.14;99438.90;1763224;80;21108;-57
2022/02/17 02:28:35;;;;;;;27.67;17.40;;;;;;;5.26;69.18;99430.85;1735462;80;21085;-57
2022/02/17 02:31:03;;;;;;;22.17;15.05;;;;;;;5.32;69.14;99430.86;1760863;80;21448;-58
2022/02/17 02:33:29;;;;;;;24.25;15.60;;;;;;;5.37;69.23;99424.84;1755088;80;21122;-58
2022/02/17 02:35:56;;;;;;;30.70;16.57;;;;;;;5.40;69.36;99422.01;1731855;81;21169;-58
2022/02/17 02:38:24;;;;;;;24.45;16.82;;;;;;;5.45;69.45;99411.23;1762984;80;21141;-58
2022/02/17 02:40:51;;;;;;;28.00;17.92;;;;;;;5.44;69.52;99406.47;1764104;80;21059;-58
2022/02/17 02:43:22;;;;;;;23.62;16.52;;;;;;;5.42;69.63;99395.32;1762325;80;21066;-58
2022/02/17 02:45:48;;;;;;;26.23;17.77;;;;;;;5.40;69.72;99392.00;1769582;80;21777;-58
2022/02/17 02:48:16;;;;;;;28.35;15.90;;;;;;;5.36;69.83;99393.16;1763549;80;21087;-59
2022/02/17 02:50:43;;;;;;;25.57;15.90;;;;;;;5.38;69.82;99384.28;1755725;80;21210;-58
2022/02/17 02:53:14;;;;;;;27.02;16.90;;;;;;;5.45;69.81;99385.14;1733415;80;21043;-57
2022/02/17 02:55:46;;;;;;;26.73;16.40;;;;;;;5.44;69.97;99384.77;1697629;82;21127;-58
2022/02/17 02:58:15;;;;;;;29.32;17.65;;;;;;;5.45;70.12;99384.66;1694276;82;21104;-58
2022/02/17 03:00:43;;;;;;;29.52;18.80;;;;;;;5.44;70.18;99384.77;1753572;80;21063;-57
2022/02/17 03:03:09;;;;;;;24.20;16.30;;;;;;;5.42;70.27;99368.41;1758563;80;21537;-58
2022/02/17 03:05:39;;;;;;;30.77;19.62;;;;;;;5.35;70.37;99364.12;1756161;80;21106;-58
2022/02/17 03:08:07;;;;;;;25.90;15.53;;;;;;;5.30;70.50;99361.03;1755498;80;21983;-57
2022/02/17 03:10:34;;;;;;;24.02;17.17;;;;;;;5.21;70.68;99352.09;1732973;80;21066;-58
2022/02/17 03:13:02;;;;;;;25.82;17.42;;;;;;;5.19;70.77;99354.84;1757908;80;21034;-58
2022/02/17 03:15:30;;;;;;;27.17;17.90;;;;;;;5.27;70.75;99347.73;1763812;80;21820;-58
2022/02/17 03:17:57;;;;;;;28.65;18.98;;;;;;;5.31;70.79;99330.06;1737542;80;21152;-59
2022/02/17 03:20:23;;;;;;;26.80;17.23;;;;;;;5.34;70.86;99321.53;1751061;80;21011;-59
2022/02/17 03:22:50;;;;;;;26.15;18.67;;;;;;;5.34;70.94;99324.63;1752892;80;21498;-57
2022/02/17 03:25:17;;;;;;;34.67;20.43;;;;;;;5.32;71.04;99310.88;1753174;80;21160;-57
2022/02/17 03:27:44;;;;;;;31.42;19.12;;;;;;;5.29;71.12;99300.18;1702748;82;21648;-57
2022/02/17 03:30:29;;;;;;;29.90;19.70;;;;;;;5.25;71.24;99306.59;1747457;80;21035;-58
2022/02/17 03:32:57;;;;;;;31.40;19.90;;;;;;;5.27;71.30;99312.52;1750032;80;21351;-58
2022/02/17 03:35:24;;;;;;;33.80;19.95;;;;;;;5.34;71.17;99311.09;1713796;82;21000;-58
2022/02/17 03:37:52;;;;;;;29.48;20.12;;;;;;;5.35;71.21;99308.04;1722148;82;21075;-59
2022/02/17 03:40:19;;;;;;;30.25;20.02;;;;;;;5.35;71.24;99297.13;1755813;80;21070;-60
2022/02/17 03:42:50;;;;;;;31.50;19.70;;;;;;;5.32;71.30;99297.34;1751371;80;21039;-59
2022/02/17 03:45:17;;;;;;;31.30;19.37;;;;;;;5.30;71.36;99291.91;1756889;80;21027;-59
2022/02/17 03:47:45;;;;;;;30.90;20.62;;;;;;;5.30;71.28;99291.42;1752679;80;21024;-59
2022/02/17 03:50:16;;;;;;;31.00;19.77;;;;;;;5.36;71.20;99289.66;1726031;81;20968;-59
2022/02/17 03:52:45;;;;;;;32.80;20.80;;;;;;;5.25;71.49;99298.77;1776853;80;21133;-59
2022/02/17 03:55:15;;;;;;;28.67;19.65;;;;;;;5.18;71.78;99285.36;1782222;80;21054;-57
2022/02/17 03:57:44;;;;;;;31.42;20.48;;;;;;;5.14;71.89;99289.61;1765129;80;21035;-59
2022/02/17 04:00:14;;;;;;;32.00;20.37;;;;;;;5.10;71.97;99280.36;1761587;80;21087;-59
2022/02/17 04:02:43;;;;;;;30.02;19.10;;;;;;;5.11;71.93;99285.47;1770235;80;21042;-59
2022/02/17 04:05:11;;;;;;;31.30;20.30;;;;;;;5.18;71.80;99277.53;1744700;81;21083;-59
2022/02/17 04:07:39;;;;;;;33.67;21.42;;;;;;;5.20;71.75;99277.42;1743462;80;21055;-57
2022/02/17 04:10:08;;;;;;;28.17;18.98;;;;;;;5.18;71.82;99278.83;1773975;80;21058;-57
2022/02/17 04:12:36;;;;;;;33.63;21.55;;;;;;;5.15;71.80;99273.02;1770730;80;20995;-57
2022/02/17 04:15:05;;;;;;;36.00;22.37;;;;;;;5.11;71.83;99276.79;1751336;80;21047;-57
2022/02/17 04:17:33;;;;;;;29.95;21.17;;;;;;;5.11;71.84;99263.75;1772651;80;21098;-57
2022/02/17 04:20:18;;;;;;;30.00;19.35;;;;;;;5.20;71.62;99253.95;1761957;80;21011;-57
2022/02/17 04:23:01;;;;;;;31.05;20.43;;;;;;;5.23;71.50;99248.95;1765449;80;21530;-58
2022/02/17 04:25:38;;;;;;;41.35;22.93;;;;;;;5.18;71.48;99258.45;1760168;80;21558;-57
2022/02/17 04:28:10;;;;;;;35.52;20.08;;;;;;;5.13;71.50;99257.48;1751138;80;21657;-58
2022/02/17 04:30:36;;;;;;;30.92;19.60;;;;;;;5.08;71.55;99261.37;1765622;80;23150;-58
2022/02/17 04:33:03;;;;;;;39.70;21.62;;;;;;;5.09;71.53;99267.77;1765542;80;21531;-58
2022/02/17 04:35:32;;;;;;;34.70;21.90;;;;;;;5.16;71.34;99257.27;1765801;80;21058;-58
2022/02/17 04:37:58;;;;;;;32.25;20.62;;;;;;;5.20;71.20;99252.64;1763880;80;21045;-58
2022/02/17 04:43:13;;;;;;;35.05;21.95;;;;;;;5.15;71.22;99237.34;1765730;80;21823;-58
2022/02/17 04:45:41;;;;;;;33.00;21.15;;;;;;;5.11;71.19;99234.62;1681239;82;21098;-58
2022/02/17 04:48:08;;;;;;;33.25;21.55;;;;;;;5.08;71.29;99231.39;1761072;80;21154;-58
2022/02/17 04:50:34;;;;;;;38.33;23.30;;;;;;;5.12;71.21;99227.13;1748088;80;21050;-57
2022/02/17 04:53:01;;;;;;;32.38;22.05;;;;;;;5.23;70.97;99221.57;1745369;81;21098;-58
2022/02/17 04:55:30;;;;;;;31.12;21.25;;;;;;;5.25;70.83;99214.00;1745073;80;21139;-58
2022/02/17 04:57:56;;;;;;;34.25;21.07;;;;;;;5.25;70.78;99208.78;1741076;81;21038;-58
2022/02/17 05:00:23;;;;;;;35.33;22.58;;;;;;;5.24;70.74;99203.69;1746252;81;21040;-58
2022/02/17 05:02:51;;;;;;;36.90;23.18;;;;;;;5.22;70.76;99205.10;1743596;81;21030;-58
2022/02/17 05:05:23;;;;;;;32.55;21.97;;;;;;;5.19;70.78;99201.42;1731256;82;21062;-58
2022/02/17 05:07:50;;;;;;;35.35;23.65;;;;;;;5.16;70.78;99206.41;1744740;81;21148;-58
2022/02/17 05:10:16;;;;;;;39.45;20.80;;;;;;;5.18;70.75;99194.08;1746241;81;21038;-58
2022/02/17 05:12:46;;;;;;;31.35;20.35;;;;;;;5.25;70.62;99198.35;1745204;81;21850;-58
2022/02/17 05:15:14;;;;;;;34.60;22.65;;;;;;;5.28;70.57;99194.66;1743802;80;21070;-57
2022/02/17 05:17:42;;;;;;;43.10;24.77;;;;;;;5.26;70.60;99179.16;1679324;82;21110;-58
2022/02/17 05:20:12;;;;;;;34.48;23.18;;;;;;;5.25;70.63;99181.88;1740999;80;21257;-58
2022/02/17 05:22:45;;;;;;;41.77;24.37;;;;;;;5.23;70.63;99178.08;1706446;81;21611;-57
2022/02/17 05:25:13;;;;;;;34.85;23.45;;;;;;;5.19;70.58;99176.64;1746734;80;21076;-58
2022/02/17 05:27:58;;;;;;;37.25;21.65;;;;;;;5.21;70.58;99179.95;1742029;81;21062;-58
2022/02/17 05:30:40;;;;;;;36.55;23.52;;;;;;;5.28;70.48;99178.56;1736650;80;21027;-59
2022/02/17 05:33:13;;;;;;;37.98;24.47;;;;;;;5.29;70.43;99161.94;1686752;82;21578;-59
2022/02/17 05:35:48;;;;;;;35.38;24.55;;;;;;;5.28;70.46;99156.84;1690729;81;21030;-59
2022/02/17 05:38:16;;;;;;;36.93;23.98;;;;;;;5.24;70.59;99152.34;1712514;82;21116;-59
2022/02/17 05:40:56;;;;;;;34.15;23.45;;;;;;;5.22;70.60;99150.34;1711014;82;21046;-59
2022/02/17 05:43:23;;;;;;;40.60;23.90;;;;;;;5.19;70.65;99144.05;1739567;81;21053;-59
2022/02/17 05:45:49;;;;;;;42.53;24.95;;;;;;;5.23;70.64;99148.55;1744418;80;21137;-59
2022/02/17 05:48:16;;;;;;;39.08;24.25;;;;;;;5.29;70.46;99139.77;1716512;82;21027;-58
2022/02/17 05:50:43;;;;;;;40.58;24.65;;;;;;;5.35;70.35;99131.96;1749965;80;21098;-58
2022/02/17 05:53:09;;;;;;;42.73;25.77;;;;;;;5.35;70.33;99122.34;1753670;80;21075;-58
2022/02/17 05:55:37;;;;;;;40.43;23.57;;;;;;;5.33;70.28;99116.43;1749873;80;21054;-58
2022/02/17 05:58:04;;;;;;;44.23;26.73;;;;;;;5.32;70.32;99120.45;1754381;80;21142;-58
2022/02/17 06:00:30;;;;;;;41.30;24.20;;;;;;;5.29;70.38;99105.86;1746509;80;21015;-58
2022/02/17 06:02:57;;;;;;;34.83;23.60;;;;;;;5.32;70.33;99099.59;1760886;80;21008;-58
2022/02/17 06:05:23;;;;;;;35.73;23.85;;;;;;;5.41;70.20;99084.50;1751597;80;21110;-58
2022/02/17 06:07:49;;;;;;;43.65;24.37;;;;;;;5.49;70.06;99089.94;1747985;80;21058;-58
2022/02/17 06:10:17;;;;;;;43.10;24.40;;;;;;;5.54;70.00;99090.41;1757115;80;21046;-59
2022/02/17 06:12:45;;;;;;;36.45;25.72;;;;;;;5.57;69.87;99090.16;1750515;80;21090;-57
2022/02/17 06:15:16;;;;;;;39.08;24.90;;;;;;;5.57;69.72;99096.69;1757896;80;21060;-58
2022/02/17 06:17:43;;;;;;;39.08;25.00;;;;;;;5.52;69.66;99089.70;1734567;80;21121;-57
2022/02/17 06:20:11;;;;;;;49.63;24.63;;;;;;;5.48;69.71;99084.84;1751927;80;21099;-57
2022/02/17 06:22:48;;;;;;;38.90;25.25;;;;;;;5.52;69.73;99092.80;1754227;80;21144;-58
2022/02/17 06:25:16;;;;;;;39.58;23.70;;;;;;;5.61;69.50;99086.02;1756760;80;20988;-58
2022/02/17 06:27:42;;;;;;;37.53;24.12;;;;;;;5.69;69.24;99095.36;1759053;80;21696;-59
2022/02/17 06:30:10;;;;;;;35.33;22.20;;;;;;;5.68;69.20;99081.95;1763399;80;21793;-59
2022/02/17 06:32:52;;;;;;;37.50;22.95;;;;;;;5.67;69.20;99072.48;1749541;80;21177;-59
2022/02/17 06:35:21;;;;;;;39.70;27.37;;;;;;;5.64;69.16;99076.63;1749877;80;21789;-58
2022/02/17 06:37:48;;;;;;;46.18;25.02;;;;;;;5.60;69.15;99072.14;1755355;80;21084;-58
2022/02/17 06:40:14;;;;;;;39.45;25.05;;;;;;;5.57;69.26;99075.81;1757968;80;21047;-58
2022/02/17 06:42:41;;;;;;;36.95;24.07;;;;;;;5.61;69.21;99053.39;1758545;80;21066;-58
2022/02/17 06:45:09;;;;;;;37.93;24.05;;;;;;;5.68;69.01;99058.00;1759181;80;21082;-58
2022/02/17 06:47:36;;;;;;;42.13;26.48;;;;;;;5.73;68.99;99055.00;1756390;80;21867;-59
2022/02/17 06:50:05;;;;;;;45.45;25.92;;;;;;;5.72;68.78;99045.53;1677152;83;21611;-59
2022/02/17 06:52:32;;;;;;;35.13;26.15;;;;;;;5.67;68.79;99041.98;1729128;80;21149;-58
2022/02/17 06:54:59;;;;;;;39.83;26.50;;;;;;;5.64;68.89;99042.71;1741989;82;21053;-59
2022/02/17 06:57:26;;;;;;;42.00;27.00;;;;;;;5.62;68.96;99039.41;1742839;80;21049;-58
2022/02/17 06:59:52;;;;;;;42.53;26.48;;;;;;;5.63;68.86;99041.89;1762287;80;21151;-59
2022/02/17 07:02:26;;;;;;;38.55;24.57;;;;;;;5.68;68.84;99031.91;1764399;80;21062;-59
2022/02/17 07:04:53;;;;;;;36.65;24.52;;;;;;;5.70;68.77;99023.92;1746616;80;20996;-59
2022/02/17 07:07:20;;;;;;;37.93;24.35;;;;;;;5.72;68.64;99007.69;1751623;80;21047;-59
2022/02/17 07:09:46;;;;;;;44.08;27.80;;;;;;;5.72;68.61;99009.81;1723537;82;21549;-58
2022/02/17 07:12:15;;;;;;;42.75;25.43;;;;;;;5.71;68.76;99002.92;1766683;80;21019;-58
2022/02/17 07:14:41;;;;;;;40.17;26.02;;;;;;;5.73;68.71;99003.64;1766228;80;21039;-58
2022/02/17 07:17:08;;;;;;;45.85;28.40;;;;;;;5.74;68.78;98998.76;1762938;80;21505;-58
2022/02/17 07:19:34;;;;;;;44.45;24.50;;;;;;;5.83;68.69;99000.27;1768783;80;21094;-58
2022/02/17 07:22:01;;;;;;;38.42;24.15;;;;;;;5.97;68.41;98989.55;1765357;80;21094;-58
2022/02/17 07:24:29;;;;;;;39.38;25.75;;;;;;;6.11;68.07;98986.60;1759604;80;21203;-59
2022/02/17 07:26:55;;;;;;;37.53;24.05;;;;;;;6.19;67.59;98982.54;1769832;80;20992;-59
2022/02/17 07:29:22;;;;;;;41.75;27.62;;;;;;;6.21;67.30;98968.86;1755260;80;21031;-59
2022/02/17 07:31:53;;;;;;;46.45;26.40;;;;;;;6.20;67.03;98964.09;1743318;80;21106;-59
2022/02/17 07:34:17;;;;;;;40.83;25.82;;;;;;;6.19;67.17;98957.73;1753973;80;21070;-59
2022/02/17 07:36:43;;;;;;;38.78;24.87;;;;;;;6.19;67.36;98947.28;1746026;80;21138;-60
2022/02/17 07:39:11;;;;;;;34.65;23.05;;;;;;;6.23;67.36;98936.91;1739178;80;21035;-59
2022/02/17 07:41:37;;;;;;;34.92;21.55;;;;;;;6.31;66.88;98920.92;1751979;80;21007;-59
2022/02/17 07:44:06;;;;;;;35.38;20.88;;;;;;;6.39;66.42;98911.13;1757529;80;21543;-59
2022/02/17 07:46:33;;;;;;;42.03;22.40;;;;;;;6.41;66.35;98898.75;1739081;81;21031;-58
2022/02/17 07:49:01;;;;;;;34.70;21.70;;;;;;;6.39;66.22;98892.84;1734316;80;21265;-59
2022/02/17 07:51:29;;;;;;;40.70;22.30;;;;;;;6.39;66.26;98893.30;1770988;80;21069;-59
2022/02/17 07:53:55;;;;;;;38.58;22.50;;;;;;;6.34;66.33;98880.66;1770331;80;20996;-59
2022/02/17 07:56:21;;;;;;;36.15;21.73;;;;;;;6.33;66.56;98875.89;1760469;79;21090;-59
2022/02/17 07:58:49;;;;;;;37.85;22.45;;;;;;;6.35;66.67;98876.25;1755494;80;22210;-59
2022/02/17 08:01:17;;;;;;;31.42;20.60;;;;;;;6.43;66.45;98880.33;1758849;80;23294;-59
2022/02/17 08:03:45;;;;;;;39.10;23.45;;;;;;;6.57;66.13;98869.48;1740498;80;20972;-59
2022/02/17 08:06:12;;;;;;;34.48;22.62;;;;;;;6.67;66.14;98860.36;1702720;82;21102;-60
2022/02/17 08:08:39;;;;;;;39.63;25.00;;;;;;;6.74;65.90;98864.11;1734061;80;21074;-59
2022/02/17 08:11:06;;;;;;;40.17;23.42;;;;;;;6.78;65.37;98852.41;1762482;80;21086;-60
2022/02/17 08:13:33;;;;;;;36.58;22.60;;;;;;;6.79;65.42;98845.38;1745907;80;21219;-59
2022/02/17 08:15:59;;;;;;;33.25;21.85;;;;;;;6.82;65.30;98843.31;1762360;80;21067;-59
2022/02/17 08:18:27;;;;;;;36.08;21.25;;;;;;;6.88;65.23;98836.73;1756088;80;21050;-59
2022/02/17 08:20:54;;;;;;;39.98;23.10;;;;;;;6.94;64.96;98839.27;1758525;80;21597;-59
2022/02/17 08:23:20;;;;;;;39.90;22.52;;;;;;;7.02;64.70;98855.10;1743370;80;21568;-59
2022/02/17 08:25:48;;;;;;;40.35;24.60;;;;;;;7.17;64.22;98844.56;1755862;80;21092;-59
2022/02/17 08:28:15;;;;;;;39.67;25.88;;;;;;;7.28;63.86;98842.76;1753055;80;21145;-58
2022/02/17 08:30:42;;;;;;;34.48;24.40;;;;;;;7.32;63.64;98843.66;1757114;80;20991;-59
2022/02/17 08:33:09;;;;;;;43.30;26.27;;;;;;;7.36;63.62;98833.73;1760473;80;21106;-59
2022/02/17 08:35:35;;;;;;;34.00;24.45;;;;;;;7.38;63.72;98822.17;1736119;80;22229;-58
2022/02/17 08:38:02;;;;;;;44.88;24.52;;;;;;;7.43;63.51;98816.49;1754488;80;21146;-58
2022/02/17 08:40:28;;;;;;;34.58;22.40;;;;;;;7.47;63.29;98806.10;1762682;80;21181;-59
2022/02/17 08:43:08;;;;;;;35.03;21.97;;;;;;;7.54;63.15;98803.25;1754896;80;21903;-59
2022/02/17 08:45:23;;;;;;;37.85;23.73;;;;;;;7.61;62.72;98810.05;1765475;80;21181;-59
2022/02/17 08:47:50;;;;;;;31.17;21.62;;;;;;;7.60;62.58;98796.14;1758746;80;21016;-59
2022/02/17 08:50:17;;;;;;;32.13;21.80;;;;;;;7.63;62.56;98800.25;1766060;80;22525;-59
2022/02/17 08:52:43;;;;;;;31.05;20.65;;;;;;;7.59;62.54;98789.25;1741241;81;21683;-59
2022/02/17 08:55:10;;;;;;;35.50;23.35;;;;;;;7.58;62.78;98785.46;1743086;81;21480;-59
2022/02/17 08:57:36;;;;;;;34.98;22.22;;;;;;;7.59;62.83;98787.13;1749248;81;21126;-57
2022/02/17 09:00:05;;;;;;;35.80;20.25;;;;;;;7.65;63.11;98780.02;1721357;81;20995;-59
2022/02/17 09:02:33;;;;;;;31.23;19.12;;;;;;;7.71;62.87;98766.33;1757036;81;21117;-60
2022/02/17 09:17:22;;;;;;;35.00;22.32;;;;;;;9.25;59.37;98733.58;1865580;76;22713;-51
2022/02/17 09:19:48;;;;;;;30.97;20.62;;;;;;;9.32;58.27;98734.60;1814064;77;21112;-52
2022/02/17 09:22:18;;;;;;;32.10;22.00;;;;;;;9.18;58.38;98724.66;1839762;77;21107;-53
2022/02/17 09:24:44;;;;;;;33.28;22.73;;;;;;;9.04;58.69;98723.43;1845965;77;21382;-52
2022/02/17 09:27:11;;;;;;;39.42;24.00;;;;;;;8.94;58.88;98720.90;1836616;77;20981;-51
2022/02/17 09:29:37;;;;;;;30.23;21.25;;;;;;;8.87;59.29;98714.13;1838842;77;21016;-51
2022/02/17 09:32:07;;;;;;;32.53;21.23;;;;;;;8.83;59.29;98706.73;1836489;77;21135;-50
2022/02/17 09:34:34;;;;;;;31.82;21.27;;;;;;;8.78;59.55;98699.32;1816412;77;20973;-52
2022/02/17 09:37:01;;;;;;;33.58;23.15;;;;;;;8.72;59.58;98688.97;1812760;77;21016;-51
2022/02/17 09:39:28;;;;;;;35.13;21.50;;;;;;;8.68;59.74;98684.98;1839356;77;21673;-53
2022/02/17 09:41:56;;;;;;;30.80;20.05;;;;;;;8.64;59.65;98670.55;1799266;77;21375;-51
2022/02/17 09:44:22;;;;;;;39.50;23.12;;;;;;;8.57;59.75;98659.50;1840457;76;21097;-51
2022/02/17 09:46:49;;;;;;;32.78;20.72;;;;;;;8.53;59.99;98646.69;1836903;77;21111;-51
2022/02/17 09:49:17;;;;;;;26.97;19.77;;;;;;;8.53;59.72;98644.56;1810784;77;21039;-50
2022/02/17 09:51:45;;;;;;;37.80;22.02;;;;;;;8.52;59.71;98642.91;1835903;77;21300;-51
2022/02/17 09:54:14;;;;;;;34.55;22.60;;;;;;;8.53;59.65;98627.52;1845904;75;21030;-50
2022/02/17 09:56:44;;;;;;;31.97;20.23;;;;;;;8.54;59.67;98631.30;1805012;77;21091;-52
2022/02/17 09:59:11;;;;;;;29.12;18.80;;;;;;;8.64;59.53;98622.04;1834595;76;21118;-52
2022/02/17 10:01:37;;;;;;;32.53;20.55;;;;;;;8.77;59.39;98611.13;1813054;77;21583;-52
2022/02/17 10:04:16;;;;;;;29.23;19.62;;;;;;;8.88;58.87;98593.81;1838101;77;21135;-54
2022/02/17 10:06:48;;;;;;;28.70;19.57;;;;;;;8.93;59.01;98589.42;1813396;77;21041;-52
2022/02/17 10:09:17;;;;;;;29.35;18.55;;;;;;;8.98;58.77;98579.28;1839106;77;21128;-53
2022/02/17 10:11:47;;;;;;;24.87;15.93;;;;;;;9.07;58.71;98580.13;1834999;76;21124;-53
2022/02/17 10:14:16;;;;;;;30.37;18.25;;;;;;;9.11;58.25;98562.61;1820676;77;21020;-51
2022/02/17 10:17:00;;;;;;;26.40;16.75;;;;;;;9.14;58.34;98563.27;1834873;77;21611;-52
2022/02/17 10:19:30;;;;;;;25.15;16.82;;;;;;;9.15;58.36;98552.62;1822659;77;21575;-54
2022/02/17 10:22:14;;;;;;;27.07;16.52;;;;;;;9.17;58.48;98545.91;1826054;78;20998;-52
2022/02/17 10:24:47;;;;;;;28.02;17.70;;;;;;;9.19;58.46;98540.00;1824004;77;21134;-52
2022/02/17 10:27:32;;;;;;;34.05;17.57;;;;;;;9.19;58.42;98532.94;1797630;78;21053;-52
2022/02/17 10:30:13;;;;;;;24.50;16.30;;;;;;;9.19;58.36;98519.01;1820555;77;21030;-52
2022/02/17 10:32:58;;;;;;;22.22;14.78;;;;;;;9.20;58.50;98528.53;1828669;77;21481;-52
2022/02/17 10:35:26;;;;;;;37.60;17.85;;;;;;;9.19;57.92;98521.13;1821779;78;21058;-54
2022/02/17 10:37:56;;;;;;;28.45;17.05;;;;;;;9.18;58.25;98528.69;1795915;77;21198;-52
2022/02/17 10:40:30;;;;;;;26.82;16.48;;;;;;;9.20;58.33;98506.23;1825372;77;21029;-51
2022/02/17 10:43:12;;;;;;;25.00;16.32;;;;;;;9.24;58.08;98495.73;1825150;77;21069;-52
2022/02/17 10:45:40;;;;;;;20.37;13.88;;;;;;;9.28;57.86;98488.70;1822932;77;21088;-52
2022/02/17 10:48:24;;;;;;;25.08;15.85;;;;;;;9.35;57.69;98488.88;1790269;77;21151;-52
2022/02/17 10:51:15;;;;;;;22.15;14.68;;;;;;;9.41;57.92;98465.89;1824773;77;21750;-52
2022/02/17 10:53:49;;;;;;;23.77;15.10;;;;;;;9.51;57.23;98467.05;1792264;78;21040;-52
2022/02/17 10:56:22;;;;;;;30.60;18.23;;;;;;;9.56;56.95;98449.51;1808960;78;21030;-53
2022/02/17 10:58:50;;;;;;;29.57;17.10;;;;;;;9.62;56.95;98464.62;1826063;77;21068;-54
2022/02/17 11:01:20;;;;;;;25.30;14.95;;;;;;;9.65;56.83;98465.11;1824557;78;21049;-54
2022/02/17 11:03:48;;;;;;;23.92;14.47;;;;;;;9.66;56.61;98448.34;1793208;78;21085;-56
2022/02/17 11:06:16;;;;;;;22.10;14.20;;;;;;;9.64;56.80;98451.64;1827123;77;21083;-50
2022/02/17 11:08:46;;;;;;;22.15;15.43;;;;;;;9.64;56.60;98439.01;1826409;77;21045;-50
2022/02/17 11:11:14;;;;;;;26.97;12.82;;;;;;;9.64;56.93;98449.52;1798758;77;21105;-50
2022/02/17 11:13:50;;;;;;;20.48;13.05;;;;;;;9.62;56.81;98435.73;1823909;77;20974;-51
2022/02/17 11:16:23;;;;;;;23.02;12.00;;;;;;;9.59;56.76;98443.43;1826310;76;21068;-53
2022/02/17 11:18:57;;;;;;;19.07;11.80;;;;;;;9.54;56.73;98439.66;1818567;77;21050;-51
2022/02/17 11:21:24;;;;;;;20.60;13.00;;;;;;;9.49;57.18;98435.71;1834216;76;21050;-52
2022/02/17 11:23:58;;;;;;;20.75;11.20;;;;;;;9.48;57.17;98431.94;1801607;77;21548;-53
2022/02/17 11:26:29;;;;;;;16.23;11.40;;;;;;;9.46;57.42;98430.81;1823460;76;21049;-53
2022/02/17 11:28:57;;;;;;;17.75;11.97;;;;;;;9.43;57.14;98431.13;1836371;76;21114;-52
2022/02/17 11:31:24;;;;;;;20.02;11.88;;;;;;;9.42;57.54;98416.36;1809051;77;21096;-52
2022/02/17 11:33:57;;;;;;;22.22;11.12;;;;;;;9.40;57.68;98419.64;1806683;77;21520;-52
2022/02/17 11:36:30;;;;;;;15.10;10.58;;;;;;;9.38;57.73;98418.15;1839213;77;21051;-51
2022/02/17 11:39:06;;;;;;;17.82;10.68;;;;;;;9.35;57.93;98407.50;1838146;77;21038;-51
2022/02/17 11:41:37;;;;;;;18.60;11.57;;;;;;;9.32;58.38;98409.13;1834853;76;21283;-52
2022/02/17 11:44:18;;;;;;;14.85;10.72;;;;;;;9.29;58.66;98396.33;1835429;77;21077;-53
2022/02/17 11:46:51;;;;;;;15.98;10.48;;;;;;;9.32;59.02;98383.39;1843233;77;21073;-53